createdAt,value
2022-11-24T00:00:30.281Z,1.63
2022-11-24T00:02:56.958Z,1.67
2022-11-24T00:05:23.672Z,1.40
2022-11-24T00:07:50.313Z,1.60
2022-11-24T00:10:16.990Z,1.48
2022-11-24T00:12:43.492Z,1.63
2022-11-24T00:15:10.239Z,1.77
2022-11-24T00:17:36.728Z,1.40
2022-11-24T00:20:03.599Z,1.75
2022-11-24T00:22:30.687Z,1.30
2022-11-24T00:24:57.181Z,1.20
2022-11-24T00:27:23.659Z,1.35
2022-11-24T00:29:50.192Z,1.70
2022-11-24T00:32:16.691Z,1.70
2022-11-24T00:34:43.272Z,1.00
2022-11-24T00:37:09.932Z,0.95
2022-11-24T00:39:36.427Z,1.42
2022-11-24T00:42:02.992Z,1.70
2022-11-24T00:44:29.485Z,1.60
2022-11-24T00:46:56.126Z,1.55
2022-11-24T00:49:22.692Z,1.50
2022-11-24T00:51:49.176Z,1.42
2022-11-24T00:54:15.683Z,1.75
2022-11-24T00:56:42.179Z,1.92
2022-11-24T00:59:08.803Z,1.42
2022-11-24T01:01:35.755Z,1.70
2022-11-24T01:04:04.029Z,1.63
2022-11-24T01:06:32.430Z,1.65
2022-11-24T01:08:59.104Z,2.00
2022-11-24T01:11:28.738Z,1.58
2022-11-24T01:13:58.115Z,1.08
2022-11-24T01:16:27.841Z,1.60
2022-11-24T01:18:55.258Z,1.83
2022-11-24T01:21:21.928Z,1.50
2022-11-24T01:23:48.488Z,1.38
2022-11-24T01:26:17.440Z,2.00
2022-11-24T01:28:47.586Z,2.22
2022-11-24T01:31:15.138Z,1.55
2022-11-24T01:33:41.683Z,1.30
2022-11-24T05:22:51.636Z,1.50
2022-11-24T05:25:18.167Z,1.80
2022-11-24T05:27:44.615Z,1.50
2022-11-24T05:30:11.399Z,2.03
2022-11-24T05:32:37.847Z,1.48
2022-11-24T05:35:05.368Z,1.70
2022-11-24T05:37:31.880Z,2.03
2022-11-24T05:39:58.416Z,1.38
2022-11-24T05:42:47.089Z,1.33
2022-11-24T05:45:19.970Z,1.50
2022-11-24T05:47:46.952Z,1.35
2022-11-24T05:50:16.449Z,1.55
2022-11-24T05:52:43.063Z,1.45
2022-11-24T05:55:11.031Z,1.95
2022-11-24T05:57:37.917Z,1.92
2022-11-24T06:00:05.652Z,1.70
2022-11-24T06:02:39.287Z,1.80
2022-11-24T06:05:06.059Z,2.38
2022-11-24T06:07:32.582Z,2.38
2022-11-24T06:09:59.169Z,2.38
2022-11-24T06:12:25.630Z,2.22
2022-11-24T06:14:52.349Z,2.15
2022-11-24T06:17:18.771Z,1.42
2022-11-24T06:19:47.759Z,1.98
2022-11-24T06:22:14.249Z,1.42
2022-11-24T06:24:40.800Z,1.58
2022-11-24T06:27:07.621Z,1.30
2022-11-24T06:29:34.095Z,1.73
2022-11-24T06:32:00.629Z,1.33
2022-11-24T06:34:27.102Z,1.67
2022-11-24T06:36:53.616Z,1.77
2022-11-24T06:39:20.125Z,1.30
2022-11-24T06:41:46.582Z,1.25
2022-11-24T06:44:13.013Z,2.20
2022-11-24T06:46:39.431Z,2.08
2022-11-24T06:49:05.898Z,1.83
2022-11-24T06:51:32.401Z,1.48
2022-11-24T06:53:59.035Z,1.42
2022-11-24T06:56:25.590Z,2.22
2022-11-24T06:58:53.656Z,1.58
2022-11-24T07:01:26.145Z,2.03
2022-11-24T07:03:53.991Z,1.45
2022-11-24T07:06:22.042Z,1.58
2022-11-24T07:08:49.117Z,1.65
2022-11-24T07:11:18.671Z,1.33
2022-11-24T07:13:46.240Z,1.70
2022-11-24T07:16:21.386Z,1.33
2022-11-24T07:18:49.383Z,1.83
2022-11-24T07:21:16.311Z,0.73
2022-11-24T07:23:42.743Z,1.25
2022-11-24T07:26:10.269Z,1.23
2022-11-24T07:28:37.551Z,1.15
2022-11-24T07:31:18.863Z,0.80
2022-11-24T07:33:49.649Z,0.80
2022-11-24T07:36:16.163Z,0.85
2022-11-24T07:38:42.608Z,0.70
2022-11-24T07:41:11.897Z,1.13
2022-11-24T07:43:39.162Z,1.15
2022-11-24T12:09:29.483Z,1.67
2022-11-24T12:12:14.222Z,1.35
2022-11-24T12:14:43.735Z,1.35
2022-11-24T12:17:19.126Z,1.05
2022-11-24T12:19:57.332Z,1.15
2022-11-24T12:22:38.197Z,1.27
2022-11-24T12:25:22.384Z,1.53
2022-11-24T12:27:53.879Z,1.10
2022-11-24T12:30:22.564Z,0.98
2022-11-24T12:33:17.024Z,1.10
2022-11-24T12:35:52.099Z,1.27
2022-11-24T12:38:44.213Z,1.17
2022-11-24T12:41:42.145Z,0.93
2022-11-24T12:44:36.755Z,1.02
2022-11-24T12:47:19.212Z,1.13
2022-11-24T12:50:01.197Z,1.15
2022-11-24T12:52:57.211Z,1.23
2022-11-24T12:55:26.323Z,1.25
2022-11-24T12:58:11.025Z,0.70
2022-11-24T13:01:02.194Z,1.10
2022-11-24T13:03:49.597Z,1.00
2022-11-24T13:06:35.386Z,1.00
2022-11-24T13:09:09.300Z,1.58
2022-11-24T13:11:48.903Z,2.97
2022-11-24T13:14:22.563Z,1.65
2022-11-24T13:19:48.272Z,1.20
2022-11-24T13:22:25.625Z,1.60
2022-11-24T13:25:24.008Z,1.63
2022-11-24T13:27:53.197Z,0.90
2022-11-24T13:30:34.773Z,1.05
2022-11-24T13:33:16.943Z,1.08
2022-11-24T13:36:01.761Z,1.42
2022-11-24T13:38:41.965Z,1.38
2022-11-24T13:41:27.676Z,0.93
2022-11-24T13:44:13.678Z,1.50
2022-11-24T13:47:06.785Z,1.15
2022-11-24T13:49:46.316Z,1.08
2022-11-24T13:53:06.606Z,1.55
2022-11-24T13:55:38.784Z,1.25
2022-11-24T13:58:11.144Z,0.80
2022-11-24T14:00:58.361Z,1.67
2022-11-24T14:04:07.010Z,1.17
2022-11-24T14:06:36.450Z,1.13
2022-11-24T14:09:17.648Z,1.25
2022-11-24T14:11:53.543Z,1.88
2022-11-24T14:14:21.060Z,1.48
2022-11-24T14:16:47.483Z,1.25
2022-11-24T14:19:18.669Z,1.50
2022-11-24T14:21:45.446Z,0.80
2022-11-24T14:24:23.013Z,1.33
2022-11-24T14:26:51.506Z,1.20
2022-11-24T14:29:21.221Z,0.85
2022-11-24T14:32:06.066Z,1.55
2022-11-24T14:34:35.975Z,1.10
2022-11-24T14:37:02.768Z,1.30
2022-11-24T14:39:30.167Z,1.02
2022-11-24T14:42:15.885Z,1.35
2022-11-24T14:44:48.188Z,1.45
2022-11-24T14:47:30.169Z,1.05
2022-11-24T14:50:05.697Z,1.42
2022-11-24T14:52:32.494Z,1.20
2022-11-24T14:55:21.414Z,1.02
2022-11-24T14:57:47.767Z,1.30
2022-11-24T15:00:26.945Z,1.08
2022-11-24T15:02:56.038Z,1.10
2022-11-24T15:05:24.528Z,1.17
2022-11-24T15:08:02.928Z,1.17
2022-11-24T15:10:34.402Z,1.20
2022-11-24T15:13:03.745Z,1.00
2022-11-24T15:15:38.611Z,1.45
2022-11-24T15:18:06.639Z,1.30
2022-11-24T15:20:37.731Z,1.17
2022-11-24T15:23:27.308Z,1.33
2022-11-24T15:26:17.314Z,1.60
2022-11-24T15:28:46.307Z,1.00
2022-11-24T15:31:13.970Z,1.70
2022-11-24T15:33:42.110Z,1.42
2022-11-24T15:36:08.702Z,1.85
2022-11-24T15:38:35.238Z,2.08
2022-11-24T15:41:01.772Z,1.35
2022-11-24T15:43:34.149Z,1.50
2022-11-24T15:46:02.005Z,1.65
2022-11-24T15:48:29.054Z,1.60
2022-11-24T15:50:57.399Z,1.83
2022-11-24T15:53:25.731Z,1.40
2022-11-24T15:55:52.552Z,1.67
2022-11-24T15:58:19.279Z,1.95
2022-11-24T16:00:45.775Z,2.17
2022-11-24T16:03:45.275Z,1.75
2022-11-24T16:05:58.743Z,2.38
2022-11-24T16:08:25.166Z,2.42
2022-11-24T16:10:51.641Z,2.63
2022-11-24T16:13:18.170Z,3.72
2022-11-24T16:15:45.900Z,2.97
2022-11-24T16:18:14.694Z,3.42
2022-11-24T16:20:41.127Z,3.50
2022-11-24T16:23:07.756Z,3.65
2022-11-24T16:25:34.263Z,5.20
2022-11-24T16:28:00.683Z,5.05
2022-11-24T16:30:27.248Z,6.22
2022-11-24T16:32:53.797Z,6.60
2022-11-24T16:35:20.287Z,5.72
2022-11-24T16:37:46.757Z,5.57
2022-11-24T16:40:13.459Z,4.88
2022-11-24T16:42:40.009Z,6.15
2022-11-24T16:45:07.075Z,5.78
2022-11-24T16:47:39.004Z,5.18
2022-11-24T16:50:06.986Z,4.65
2022-11-24T16:52:33.445Z,4.60
2022-11-24T17:26:49.712Z,9.35
2022-11-24T17:29:16.201Z,8.52
2022-11-24T17:31:43.026Z,8.07
2022-11-24T17:34:11.459Z,7.20
2022-11-24T17:36:39.595Z,7.50
2022-11-24T17:39:09.343Z,6.88
2022-11-24T17:41:35.983Z,6.95
2022-11-24T17:44:02.873Z,6.25
2022-11-24T17:46:30.563Z,6.05
2022-11-24T17:48:57.278Z,7.80
2022-11-24T17:51:25.641Z,8.40
2022-11-24T22:49:01.598Z,5.40
2022-11-24T22:51:31.331Z,3.97
2022-11-24T22:54:00.487Z,4.45
2022-11-24T22:56:32.260Z,4.60
2022-11-24T22:59:00.111Z,4.57
2022-11-24T23:01:28.281Z,4.60
2022-11-24T23:03:55.003Z,4.80
2022-11-24T23:06:24.615Z,4.68
2022-11-24T23:08:52.056Z,4.60
2022-11-24T23:11:32.719Z,3.65
2022-11-24T23:14:02.146Z,4.45
2022-11-24T23:16:29.175Z,4.88
2022-11-24T23:18:55.852Z,3.95
2022-11-24T23:21:30.968Z,4.90
2022-11-24T23:24:00.336Z,4.55
2022-11-24T23:26:33.314Z,4.70
2022-11-24T23:29:00.208Z,4.07
2022-11-24T23:31:28.892Z,3.63
2022-11-24T23:33:59.675Z,3.78
2022-11-24T23:36:27.804Z,4.00
2022-11-24T23:38:54.498Z,3.85
2022-11-24T23:41:25.625Z,3.63
2022-11-24T23:43:52.849Z,3.65
2022-11-24T23:46:24.493Z,3.67
2022-11-24T23:51:20.923Z,3.80
2022-11-24T23:53:48.292Z,3.92
2022-11-24T23:56:17.643Z,4.05
2022-11-24T23:58:44.271Z,3.65
